Etusivu
METAR-TAF:

METAR-TAF

Lentoasemat :

York Municipal Airport

York, Nebraska, Yhdysvallat

Leveyspiiri: 40-53-48N, Pituuspiiri: 097-37-22W, korkeus merenpinnasta: 509 m

Tämänhetkinen sää

Tämä raportti tehtiin 12 minuuttia sitten, kello 22.15 UTC
Tuuli 9 kn kaakosta
Lämpötila 31°C
Kosteus 63%
Ilmanpaine 1014 hPa
Näkyvyys: 14.5 km
selkeää

METAR: KJYR 132215Z AUTO 14009KT 9SM CLR 31/23 A2994 RMK AO2

Aika: 17:27 (22:27 UTC)


TAF: puuttuu

Säähavainnot ja -ennusteet yli 4000 lentoasemalta (METAR- ja TAF-raportit).

Käytössä olevat sääasemat on merkitty karttaan keltaisilla ja punaisilla pisteillä.

Aseta hiiri pisteen päälle nähdäksesi sääaseman nimen.

Klikkaa sitten nähdäksesi säähavainnot ja -ennusteet.

Kartan vaihtaminen: klikkaa mustalla rastilla varustettuja vihreitä pisteitä, niin voit zoomata sisään; viivalla varustettua vihreää pistettä, niin voit zoomata ulos tai vihreitä nuolia, niin pääset viereisille kartoille.


METAR-TAF: